Date,TemperatureHighF,TemperatureAvgF,TemperatureLowF,DewpointHighF,DewpointAvgF,DewpointLowF,HumidityHigh,HumidityAvg,HumidityLow,PressureMaxIn,PressureMinIn,WindSpeedMaxMPH,WindSpeedAvgMPH,GustSpeedMaxMPH,PrecipitationSumIn
2013-3-1,39.5,36.5,29.5,30.6,24.4,21.3,84,63,49,29.65,29.50,8,2,18,0.00
2013-3-2,41.3,35.8,28.1,24.8,21.3,18.8,74,56,46,29.65,29.59,7,2,15,0.00
2013-3-3,39.6,34.0,29.5,26.5,22.1,19.3,73,62,52,29.61,29.53,7,2,16,0.00
2013-3-4,37.7,32.8,29.1,22.3,18.0,14.6,65,54,42,29.72,29.56,11,6,29,0.00
2013-3-5,45.1,36.6,29.5,29.5,21.2,16.7,76,54,38,30.04,29.72,7,1,15,0.00
2013-3-6,37.9,34.7,30.9,31.0,28.4,23.6,84,78,60,30.10,30.03,10,3,23,0.00
2013-3-7,34.3,31.6,29.7,27.1,24.9,21.3,83,76,61,30.09,29.99,6,1,21,0.00
2013-3-8,40.5,33.2,29.2,28.3,24.3,17.2,84,71,48,30.14,29.95,4,1,13,0.00
2013-3-9,52.9,36.7,25.3,24.0,16.9,3.3,79,49,13,30.33,30.14,6,1,13,0.00
2013-3-10,45.2,33.6,20.0,26.8,22.5,14.8,82,65,43,30.39,30.27,5,1,11,0.00
2013-3-11,51.1,40.8,30.7,34.1,28.3,24.9,82,63,37,30.28,30.10,6,1,16,0.00
2013-3-12,54.8,48.0,38.9,48.6,42.6,33.4,86,82,69,30.11,29.67,9,3,21,0.00
2013-3-13,51.0,42.1,30.6,46.6,23.8,8.9,85,52,20,29.75,29.66,11,3,22,0.00
2013-3-14,34.9,29.8,21.5,19.4,8.4,-0.8,64,41,28,29.81,29.67,11,4,24,0.00
2013-3-15,39.6,28.6,17.8,22.7,5.1,-6.8,66,39,14,29.84,29.59,9,3,24,0.00
2013-3-16,37.2,31.8,25.7,20.2,6.4,-1.9,58,36,20,29.85,29.62,7,2,17,0.00
2013-3-17,35.2,27.6,18.8,13.2,2.6,-9.6,72,39,14,30.28,29.85,11,3,25,0.00
2013-3-18,37.9,27.0,14.3,22.2,-2.6,-14.9,77,31,10,30.43,30.22,5,1,11,0.00
2013-3-19,32.8,30.3,25.8,28.6,25.9,21.1,85,84,78,30.23,29.62,10,2,18,0.00
2013-3-20,36.9,29.4,24.1,20.5,17.7,12.2,81,63,38,29.78,29.67,10,2,23,0.00
2013-3-21,38.9,28.5,17.2,21.8,13.6,6.0,79,57,27,29.78,29.57,3,0,8,0.00
2013-3-22,40.2,32.1,24.4,20.7,13.2,5.2,79,47,26,29.69,29.58,9,3,23,0.00
2013-3-23,41.5,33.9,24.8,17.2,12.3,6.7,67,43,24,29.74,29.60,14,5,31,0.00
2013-3-24,45.5,38.0,31.9,21.5,16.6,13.9,59,42,29,29.78,29.70,11,4,20,0.00
2013-3-25,43.3,35.5,26.7,26.3,22.5,19.0,74,60,48,29.75,29.50,9,2,18,0.00
2013-3-26,49.2,40.0,34.0,23.7,17.2,5.6,61,43,18,29.75,29.53,8,2,17,0.00
2013-3-27,52.6,40.8,25.5,26.4,17.2,10.9,73,42,20,29.85,29.71,11,3,21,0.00
2013-3-28,49.3,42.0,34.7,30.6,26.9,21.0,81,57,34,29.98,29.84,5,1,14,0.00
2013-3-29,55.7,43.5,30.1,29.3,25.4,16.1,79,52,23,30.02,29.94,8,1,16,0.00
2013-3-30,55.3,44.9,33.4,28.7,15.4,-0.8,75,38,11,30.06,29.97,11,2,21,0.00
2013-3-31,58.9,43.0,25.0,35.2,18.0,5.7,74,43,12,30.09,29.75,10,2,22,0.00